McGhee Tyson Airport

KTYS · Tennessee, United States

METAR history KTYS · McGhee Tyson Airport

Below you see METARs of the last few days. Select a year to browse through older METARs, from the year 2007 onwards.

April 19, 2024

Time Code Weather Temp. Visibility Ceiling Wind METAR/SPECI
09:53
V
21 °C 10 mi - 210° 210° 13 kt METAR KTYS 191353Z 21013KT 10SM FEW032 SCT250 21/18 A3004 RMK AO2 SLP163 T02110178
08:53
V
19 °C 10 mi 20,000 ft 200° 200° 10 kt METAR KTYS 191253Z 20010KT 10SM FEW032 SCT040 BKN200 19/18 A3004 RMK AO2 SLP162 T01940178
07:53
V
19 °C 10 mi 3,200 ft 190° 190° 10 kt METAR KTYS 191153Z 19010KT 10SM FEW008 FEW023 OVC032 19/18 A3003 RMK AO2 RAE20 SLP158 P0002 60029 70029 T01890178 10206 20189 51011
07:29
M
19 °C 10 mi 2,800 ft 200° 200° 9 kt METAR KTYS 191129Z 20009KT 10SM FEW009 BKN028 OVC036 19/18 A3003 RMK AO2 RAE20 P0002 T01890178
07:19
I
19 °C 3 mi 1,400 ft 210° 210° 10 kt METAR KTYS 191119Z 21010KT 3SM -RA BR SCT009 BKN014 OVC035 19/18 A3003 RMK AO2 P0002 T01890178
06:53
I
19 °C 3 mi 800 ft 220° 220° 11 kt METAR KTYS 191053Z 22011KT 3SM -RA BR BKN008 BKN018 OVC030 19/18 A3001 RMK AO2 SLP152 P0026 T01890178
06:31
M
19 °C 3 mi 2,500 ft 210° 210° 6 kt METAR KTYS 191031Z 21006KT 3SM -RA BR SCT014 BKN025 OVC044 19/18 A3001 RMK AO2 LTG DSNT S P0021 T01890183
06:16
I
19 °C 3 mi 4,200 ft 260° 260° 7 kt METAR KTYS 191016Z 26007KT 3SM -RA BR FEW018 BKN042 OVC050 19/18 A3000 RMK AO2 P0014 T01890178
06:10
I
19 °C 1½ mi 4,200 ft 240° 240° 9 kt METAR KTYS 191010Z 24009KT 1 1/2SM +RA BR FEW018 BKN042 OVC050 19/18 A3000 RMK AO2 LTG DSNT S P0002 T01940178
05:53
V
19 °C 10 mi 5,000 ft 270° 270° 5 kt METAR KTYS 190953Z 27005KT 10SM -RA FEW019 BKN050 OVC070 19/17 A2999 RMK AO2 LTG DSNT S RAB33 SLP145 P0001 T01940172
04:53
V
20 °C 10 mi 9,000 ft 240° 240° 9 kt METAR KTYS 190853Z 24009KT 10SM SCT075 BKN090 BKN250 20/17 A2998 RMK AO2 SLP141 T02000167 55003
03:53
V
19 °C 10 mi - 220° 220° 6 kt METAR KTYS 190753Z 22006KT 10SM SCT060 SCT250 19/16 A2996 RMK AO2 SLP136 T01940156
02:53
V
19 °C 10 mi - 210° 210° 5 kt METAR KTYS 190653Z 21005KT 10SM FEW250 19/15 A2997 RMK AO2 SLP136 T01940150
01:53
V
19 °C 10 mi - 170° 170° 4 kt METAR KTYS 190553Z 17004KT 10SM FEW150 SCT250 19/15 A2999 RMK AO2 SLP145 T01940150 10256 20189 56009
00:53
V
20 °C 10 mi - 210° 210° 7 kt METAR KTYS 190453Z 21007KT 10SM FEW250 20/15 A3000 RMK AO2 SLP150 T02000150 402940122

April 18, 2024

Time Code Weather Temp. Visibility Ceiling Wind METAR/SPECI
23:53
V
21 °C 10 mi 25,000 ft 230° 230° 7 kt METAR KTYS 190353Z 23007KT 10SM BKN250 21/15 A3001 RMK AO2 SLP151 T02060150
22:53
V
22 °C 10 mi 25,000 ft 240° 240° 6 kt METAR KTYS 190253Z 24006KT 10SM SCT070 BKN250 22/14 A3002 RMK AO2 SLP155 T02220144 51015
21:53
V
23 °C 10 mi 25,000 ft 240° 240° 6 kt METAR KTYS 190153Z 24006KT 10SM FEW050 BKN250 23/14 A3000 RMK AO2 SLP150 T02330139
20:53
V
24 °C 10 mi 25,000 ft 250° 250° 5 kt METAR KTYS 190053Z 25005KT 10SM FEW060 SCT150 BKN250 24/12 A2999 RMK AO2 SLP148 T02390122
19:53
V
26 °C 10 mi - 230° 230° 5 kt METAR KTYS 182353Z 23005KT 10SM FEW040 FEW070 FEW200 SCT250 26/12 A2997 RMK AO2 SLP141 T02560117 10294 20256 58006
18:53
V
28 °C 10 mi - 280° 280° 5 kt METAR KTYS 182253Z 28005KT 10SM FEW080 FEW200 SCT250 28/11 A2998 RMK AO2 SLP142 T02830106
17:53
V
29 °C 10 mi - 360° 360° 0 kt METAR KTYS 182153Z 00000KT 10SM FEW080 FEW250 29/12 A2999 RMK AO2 SLP145 T02890117
16:53
V
29 °C 10 mi - 250° 250° 5 kt METAR KTYS 182053Z 25005KT 10SM FEW055 FEW250 29/12 A2999 RMK AO2 SLP147 T02940122 57027
15:53
V
28 °C 10 mi - 290° 290° 5 kt METAR KTYS 181953Z 29005KT 10SM FEW055 FEW250 28/13 A3002 RMK AO2 SLP156 T02830128
14:53
V
27 °C 10 mi - Var Var 5 kt METAR KTYS 181853Z VRB05KT 10SM FEW050 FEW250 27/15 A3005 RMK AO2 SLP166 T02720150
13:53
V
27 °C 10 mi - 010° 010° 3 kt METAR KTYS 181753Z 01003KT 10SM FEW047 FEW250 27/14 A3008 RMK AO2 SLP175 T02670144 10267 20150 58020
12:53
V
25 °C 10 mi - 010° 010° 3 kt METAR KTYS 181653Z 01003KT 10SM FEW043 FEW250 25/15 A3010 RMK AO2 SLP184 T02500150
11:53
V
24 °C 10 mi - 290° 290° 3 kt METAR KTYS 181553Z 29003KT 10SM FEW035 FEW250 24/16 A3012 RMK AO2 SLP192 T02390156
10:53
V
22 °C 10 mi - 360° 360° 0 kt METAR KTYS 181453Z 00000KT 10SM FEW032 FEW250 22/14 A3014 RMK AO2 SLP197 T02170144 53004
09:53
V
19 °C 10 mi 3,400 ft 360° 360° 0 kt METAR KTYS 181353Z 00000KT 10SM FEW028 BKN034 19/14 A3013 RMK AO2 SLP196 T01940139
08:53
V
16 °C 10 mi 3,300 ft 210° 210° 4 kt METAR KTYS 181253Z 21004KT 10SM OVC033 16/13 A3013 RMK AO2 SLP197 T01610128
08:29
V
16 °C 10 mi 3,300 ft 220° 220° 4 kt METAR KTYS 181229Z 22004KT 10SM OVC033 16/13 A3013 RMK AO2 T01610128
07:53
M
15 °C 10 mi 2,900 ft 260° 260° 4 kt METAR KTYS 181153Z 26004KT 10SM SCT022 OVC029 15/12 A3012 RMK AO2 SLP195 70003 T01500122 10156 20122 53012
07:10
M
15 °C 10 mi 2,900 ft 190° 190° 4 kt METAR KTYS 181110Z 19004KT 10SM FEW024 OVC029 15/12 A3010 RMK AO2 T01500122
06:53
V
14 °C 10 mi 3,100 ft 360° 360° 0 kt METAR KTYS 181053Z 00000KT 10SM OVC031 14/12 A3010 RMK AO2 SLP187 T01440122
05:53
M
14 °C 10 mi 1,700 ft 200° 200° 5 kt METAR KTYS 180953Z 20005KT 10SM BKN017 OVC024 14/12 A3009 RMK AO2 SLP185 T01440122
04:53
M
13 °C 10 mi 2,700 ft 360° 360° 0 kt METAR KTYS 180853Z 00000KT 10SM BKN027 13/12 A3009 RMK AO2 SLP184 T01280117 55001
04:20
M
13 °C 10 mi 2,800 ft 360° 360° 0 kt METAR KTYS 180820Z 00000KT 10SM FEW019 BKN028 13/12 A3008 RMK AO2 T01330117
03:53
V
12 °C 10 mi - 360° 360° 0 kt METAR KTYS 180753Z 00000KT 10SM CLR 12/11 A3008 RMK AO2 SLP182 T01220111
02:53
V
14 °C 10 mi - 250° 250° 6 kt METAR KTYS 180653Z 25006KT 10SM CLR 14/12 A3008 RMK AO2 SLP182 T01390117
01:53
V
16 °C 10 mi - 260° 260° 7 kt METAR KTYS 180553Z 26007KT 10SM FEW020 16/12 A3009 RMK AO2 SLP183 T01560117 10183 20150 58003
00:53
V
16 °C 10 mi - 250° 250° 7 kt METAR KTYS 180453Z 25007KT 10SM FEW022 SCT250 16/12 A3010 RMK AO2 SLP187 T01560117 402280100
00:34
V
16 °C 10 mi 25,000 ft 250° 250° 7 kt METAR KTYS 180434Z 25007KT 10SM SCT020 OVC250 16/12 A3010 RMK AO2 T01560122
00:08
M
16 °C 10 mi 2,000 ft 270° 270° 9 kt METAR KTYS 180408Z 27009KT 10SM BKN020 16/12 A3011 RMK AO2 T01610122

April 17, 2024

Time Code Weather Temp. Visibility Ceiling Wind METAR/SPECI
23:53
V
16 °C 10 mi 25,000 ft 270° 270° 9 kt METAR KTYS 180353Z 27009KT 10SM SCT024 BKN250 16/12 A3011 RMK AO2 SLP187 T01560122
23:00
V
16 °C 10 mi - 240° 240° 5 kt METAR KTYS 180300Z 24005KT 10SM FEW023 16/12 A3010 RMK AO2 T01560122
22:53
M
16 °C 10 mi 2,300 ft 220° 220° 7 kt METAR KTYS 180253Z 22007KT 10SM BKN023 BKN250 16/12 A3010 RMK AO2 SLP185 T01560122 51016
22:03
M
17 °C 10 mi 2,300 ft 270° 270° 7 kt METAR KTYS 180203Z 27007KT 10SM BKN023 OVC250 17/13 A3010 RMK AO2 T01720128
21:53
V
16 °C 10 mi - 240° 240° 8 kt METAR KTYS 180153Z 24008KT 10SM SCT023 16/12 A3010 RMK AO2 SLP184 T01610122
21:22
V
17 °C 10 mi 25,000 ft 250° 250° 8 kt METAR KTYS 180122Z 25008KT 10SM FEW026 SCT130 OVC250 17/12 A3008 RMK AO2 T01720122
20:53
M
18 °C 10 mi 2,200 ft 230° 230° 10 kt METAR KTYS 180053Z 23010KT 10SM BKN022 OVC039 18/12 A3008 RMK AO2 SLP177 T01780122
19:53
V
18 °C 10 mi 3,100 ft 210° 210° 15 kt METAR KTYS 172353Z 21015KT 10SM FEW025 BKN031 OVC070 18/12 A3005 RMK AO2 SLP169 60003 T01830117 10206 20150 53005
18:53
V
19 °C 10 mi 25,000 ft 250° 250° 17 - 24 kt METAR KTYS 172253Z 25017G24KT 10SM FEW037 SCT070 SCT130 OVC250 19/11 A3004 RMK AO2 SLP163 T01940106
17:53
V
20 °C 10 mi 13,000 ft 210° 210° 16 - 23 kt METAR KTYS 172153Z 21016G23KT 10SM SCT055 BKN130 OVC250 20/12 A3001 RMK AO2 SLP155 T02000122
16:53
V
17 °C 10 mi 6,500 ft 260° 260° 7 kt METAR KTYS 172053Z 26007KT 10SM FEW035 BKN065 BKN130 OVC250 17/12 A3004 RMK AO2 RAE28 SLP164 P0000 60003 T01720117 58009
15:53
V
16 °C 10 mi 3,700 ft 230° 230° 10 kt METAR KTYS 171953Z 23010KT 10SM -RA BKN037 BKN049 OVC060 16/12 A3006 RMK AO2 SLP173 P0002 T01560122
14:53
V
16 °C 10 mi 10,000 ft 220° 220° 13 kt METAR KTYS 171853Z 22013KT 10SM -RA BKN100 OVC250 16/ A3008 RMK AO2 PK WND 21028/1756 SLP179 P0001 T0161 $
13:53
V
21 °C 10 mi 10,000 ft 210° 210° 19 - 25 kt METAR KTYS 171753Z 21019G25KT 10SM -RA FEW055 BKN100 OVC250 21/07 A3006 RMK AO2 PK WND 22030/1740 SLP172 P0000 60000 T02060072 10228 20206 55005
12:53
V
21 °C 10 mi 7,000 ft 200° 200° 11 kt METAR KTYS 171653Z 20011KT 10SM -RA FEW035 BKN070 OVC250 21/08 A3005 RMK AO2 RAB33 PRESFR SLP166 P0000 T02060083
11:53
V
22 °C 10 mi 12,000 ft 200° 200° 11 kt METAR KTYS 171553Z 20011KT 10SM FEW035 BKN120 OVC250 22/09 A3006 RMK AO2 SLP168 T02170089
10:53
V
22 °C 10 mi 15,000 ft 210° 210° 14 - 20 kt METAR KTYS 171453Z 21014G20KT 10SM FEW045 BKN150 OVC250 22/10 A3008 RMK AO2 SLP176 T02170100 53004
09:53
V
22 °C 10 mi 25,000 ft 220° 220° 12 kt METAR KTYS 171353Z 22012KT 10SM FEW045 SCT150 OVC250 22/13 A3007 RMK AO2 SLP172 T02170133
08:53
V
21 °C 10 mi 25,000 ft 210° 210° 12 kt METAR KTYS 171253Z 21012KT 10SM FEW045 SCT150 OVC250 21/13 A3006 RMK AO2 SLP170 T02110128
07:53
V
21 °C 10 mi 25,000 ft 220° 220° 11 kt METAR KTYS 171153Z 22011KT 10SM FEW045 SCT150 OVC250 21/12 A3007 RMK AO2 SLP172 60000 T02110122 10222 20183 53012
06:53
V
21 °C 10 mi 13,000 ft 260° 260° 7 kt METAR KTYS 171053Z 26007KT 10SM BKN130 OVC250 21/12 A3005 RMK AO2 SLP164 T02110117
05:53
V
21 °C 10 mi 13,000 ft 230° 230° 8 kt METAR KTYS 170953Z 23008KT 10SM BKN130 OVC250 21/11 A3002 RMK AO2 SLP155 T02110111
04:53
V
21 °C 10 mi 13,000 ft 250° 250° 7 kt METAR KTYS 170853Z 25007KT 10SM BKN130 OVC250 21/11 A3003 RMK AO2 SLP157 60000 T02060106 55001
03:53
V
21 °C 10 mi 25,000 ft 260° 260° 11 kt METAR KTYS 170753Z 26011KT 10SM SCT130 OVC250 21/10 A3002 RMK AO2 SLP154 T02110100
02:53
V
22 °C 10 mi 25,000 ft 270° 270° 5 kt METAR KTYS 170653Z 27005KT 10SM SCT120 OVC250 22/09 A2999 RMK AO2 RAB17E26 PRESFR SLP143 P0000 T02170094
01:53
V
21 °C 10 mi 25,000 ft 250° 250° 5 kt METAR KTYS 170553Z 25005KT 10SM SCT130 OVC250 21/11 A3003 RMK AO2 SLP160 T02110111 10244 20200 58008
Report a change